createdAt,value
2023-08-17T11:23:46.211Z,5.57
2023-08-17T11:26:17.571Z,4.85
2023-08-17T11:28:46.074Z,4.93
2023-08-17T11:31:17.101Z,5.13
2023-08-17T11:33:48.814Z,4.97
2023-08-17T11:36:16.363Z,5.07
2023-08-17T11:38:45.320Z,5.47
2023-08-17T11:43:45.487Z,4.88
2023-08-17T11:46:13.914Z,4.97
2023-08-17T11:48:41.478Z,4.67
2023-08-17T11:51:08.731Z,4.90
2023-08-17T11:53:40.958Z,4.82
2023-08-17T11:56:10.459Z,4.50
2023-08-17T11:58:47.296Z,5.68
2023-08-17T12:01:17.632Z,4.70
2023-08-17T12:03:45.796Z,4.28
2023-08-17T12:06:16.567Z,4.28
2023-08-17T12:08:48.063Z,4.10
2023-08-17T12:11:20.868Z,4.20
2023-08-17T12:13:54.910Z,5.38
2023-08-17T12:16:24.093Z,4.40
2023-08-17T12:18:53.869Z,4.13
2023-08-17T12:21:23.381Z,4.90
2023-08-17T12:23:51.068Z,4.38
2023-08-17T12:26:23.035Z,4.60
2023-08-17T12:28:51.383Z,5.40
2023-08-17T12:31:24.912Z,4.90
2023-08-17T16:26:41.578Z,6.97
2023-08-17T16:29:08.797Z,5.85
2023-08-17T16:31:36.974Z,6.00
2023-08-17T16:34:04.433Z,6.07
2023-08-17T16:36:36.314Z,5.38
2023-08-17T16:39:04.112Z,5.80
2023-08-17T16:41:31.283Z,5.93
2023-08-17T16:43:58.763Z,5.57
2023-08-17T16:46:26.200Z,5.90
2023-08-17T16:48:53.301Z,5.88
2023-08-17T16:51:20.362Z,6.50
2023-08-17T16:53:50.952Z,6.10
2023-08-17T16:56:18.332Z,6.50
2023-08-17T16:58:45.397Z,6.07
2023-08-17T17:01:15.184Z,8.20
2023-08-17T17:03:43.866Z,8.30
2023-08-17T17:06:12.502Z,8.63
2023-08-17T17:08:39.573Z,7.50
2023-08-17T17:11:06.744Z,7.17
2023-08-17T17:13:35.705Z,7.20
2023-08-17T17:16:03.266Z,7.43
2023-08-17T17:18:30.424Z,7.03
2023-08-17T17:20:57.530Z,7.57
2023-08-17T17:23:24.535Z,8.30
2023-08-17T17:25:51.635Z,8.57
2023-08-17T17:28:18.790Z,8.55
2023-08-17T17:30:45.893Z,8.88
2023-08-17T17:33:13.033Z,8.25
2023-08-17T17:35:40.098Z,8.68
2023-08-17T17:38:08.127Z,8.65
2023-08-17T17:40:35.252Z,8.43
2023-08-17T17:43:02.326Z,8.50
2023-08-17T17:45:29.496Z,8.73
2023-08-17T17:47:56.814Z,8.50
2023-08-17T17:50:24.124Z,8.13
2023-08-17T17:52:51.256Z,7.83
2023-08-17T17:55:18.456Z,7.77
2023-08-17T17:57:45.582Z,8.57
2023-08-17T18:00:14.613Z,7.57
2023-08-17T18:02:41.770Z,7.97
2023-08-17T18:05:14.270Z,7.70
2023-08-17T18:07:41.344Z,7.60
2023-08-17T18:10:09.295Z,7.03
2023-08-17T18:12:36.574Z,6.90
2023-08-17T18:15:04.249Z,7.30
2023-08-17T18:17:32.538Z,7.33
2023-08-17T18:19:59.905Z,7.32
2023-08-17T18:22:26.991Z,7.53
2023-08-17T18:24:54.378Z,7.07
2023-08-17T18:27:22.699Z,7.30
2023-08-17T18:29:49.864Z,7.32
2023-08-17T18:32:16.962Z,6.97
2023-08-17T18:34:44.009Z,7.10
2023-08-17T18:37:11.080Z,7.68
2023-08-17T18:39:38.197Z,6.88
2023-08-17T18:42:05.619Z,7.38
2023-08-17T18:44:32.663Z,7.03
2023-08-17T18:46:59.729Z,6.80
2023-08-17T18:49:26.837Z,6.15
2023-08-17T18:51:54.008Z,7.40
2023-08-17T18:54:21.027Z,7.25
2023-08-17T18:56:48.308Z,7.07
2023-08-17T18:59:15.447Z,6.45
2023-08-17T19:01:42.574Z,6.95
2023-08-17T19:04:09.710Z,6.88
2023-08-17T19:06:36.795Z,7.00
2023-08-17T19:09:04.633Z,6.97
2023-08-17T19:11:31.721Z,6.53
2023-08-17T19:13:58.835Z,7.05
2023-08-17T19:16:26.118Z,6.53
2023-08-17T19:18:53.263Z,6.65
2023-08-17T19:21:20.372Z,6.55
2023-08-17T19:23:47.503Z,6.70
2023-08-17T19:26:14.910Z,6.90
2023-08-17T19:28:41.996Z,6.47
2023-08-17T19:31:09.370Z,6.85
2023-08-17T19:33:36.394Z,6.70
2023-08-17T19:36:03.750Z,7.50
2023-08-17T19:38:30.852Z,6.93
2023-08-17T19:40:57.901Z,6.85
2023-08-17T19:43:25.020Z,7.20
2023-08-17T19:45:52.120Z,6.50
2023-08-17T19:48:19.227Z,6.70
2023-08-17T19:50:46.263Z,7.40
2023-08-17T19:53:13.336Z,6.78
2023-08-17T19:55:40.446Z,6.75
2023-08-17T19:58:07.566Z,6.70
2023-08-17T20:00:35.244Z,7.25
2023-08-17T20:03:02.578Z,7.57
2023-08-17T20:05:29.718Z,7.13
2023-08-17T20:07:56.914Z,7.18
2023-08-17T20:10:24.072Z,7.28
2023-08-17T20:12:51.201Z,6.60
2023-08-17T20:15:18.401Z,7.43
2023-08-17T20:17:45.524Z,7.00
2023-08-17T20:20:16.746Z,7.30
2023-08-17T20:22:45.395Z,6.93
2023-08-17T20:25:13.937Z,7.18
2023-08-17T20:27:45.999Z,6.97
2023-08-17T20:30:13.706Z,7.25
2023-08-17T20:32:40.839Z,7.00
2023-08-17T20:35:08.628Z,7.50
2023-08-17T20:37:35.900Z,7.53
2023-08-17T20:40:03.018Z,7.28
2023-08-17T20:42:30.086Z,6.50
2023-08-17T20:44:57.230Z,6.93
2023-08-17T20:47:24.600Z,6.53
2023-08-17T20:49:51.718Z,6.70
2023-08-17T20:52:19.196Z,7.25
2023-08-17T20:54:46.360Z,7.13
2023-08-17T20:57:14.579Z,6.37
2023-08-17T21:00:16.559Z,6.07
2023-08-17T21:02:43.691Z,6.32
2023-08-17T21:05:10.908Z,6.47
2023-08-17T21:07:38.432Z,6.28
2023-08-17T21:10:06.520Z,5.83
2023-08-17T21:12:33.684Z,5.63
2023-08-17T21:15:00.968Z,5.95
2023-08-17T21:17:28.462Z,5.67
2023-08-17T21:19:57.240Z,5.85
2023-08-17T21:22:24.454Z,6.15
2023-08-17T21:24:51.593Z,6.00
2023-08-17T21:27:18.722Z,6.13
2023-08-17T21:29:45.793Z,6.10
2023-08-17T21:32:13.180Z,5.72
2023-08-17T21:34:40.261Z,5.45
2023-08-17T21:37:10.940Z,5.75
2023-08-17T21:39:38.238Z,5.53
2023-08-17T21:42:05.868Z,5.68
2023-08-17T21:44:32.967Z,6.17
2023-08-17T21:47:00.085Z,5.40
2023-08-17T21:49:27.198Z,5.90
2023-08-17T21:51:54.244Z,6.18
2023-08-17T21:54:21.329Z,6.47
2023-08-17T21:56:48.431Z,5.70
2023-08-17T21:59:15.661Z,5.82
2023-08-17T22:01:42.782Z,5.55
2023-08-17T22:04:09.885Z,5.43
2023-08-17T22:06:38.548Z,5.85
2023-08-17T22:09:06.021Z,5.80
2023-08-17T22:11:33.114Z,5.40
2023-08-17T22:14:00.180Z,5.60
2023-08-17T22:16:27.342Z,6.00
2023-08-17T22:18:58.022Z,6.00
2023-08-17T22:21:25.208Z,5.88
2023-08-17T22:23:52.224Z,5.57
2023-08-17T22:26:19.289Z,5.15
2023-08-17T22:28:46.578Z,5.65
2023-08-17T22:31:14.072Z,5.85
2023-08-17T22:33:41.219Z,5.70
2023-08-17T22:36:08.432Z,5.97
2023-08-17T22:38:35.498Z,5.65
2023-08-17T22:41:02.552Z,5.97
2023-08-17T22:43:29.636Z,5.32
2023-08-17T22:45:56.708Z,5.78
2023-08-17T22:48:23.833Z,5.60
2023-08-17T22:50:50.937Z,6.28
2023-08-17T22:53:18.083Z,5.97
2023-08-17T22:55:45.174Z,6.05
2023-08-17T22:58:12.243Z,5.85
2023-08-17T23:00:40.269Z,5.50
2023-08-17T23:03:07.548Z,6.53
2023-08-17T23:05:34.861Z,5.97
2023-08-17T23:08:02.536Z,5.90
2023-08-17T23:10:29.688Z,5.60
2023-08-17T23:12:56.801Z,5.90
2023-08-17T23:15:24.167Z,5.93
2023-08-17T23:17:51.219Z,5.35
2023-08-17T23:20:18.390Z,6.20
2023-08-17T23:22:45.436Z,6.03
2023-08-17T23:25:12.560Z,6.13
2023-08-17T23:27:40.379Z,5.60
2023-08-17T23:30:08.307Z,5.72
2023-08-17T23:32:35.554Z,6.13
2023-08-17T23:35:02.789Z,6.13
2023-08-17T23:37:30.243Z,6.00
2023-08-17T23:39:57.602Z,5.93
2023-08-17T23:42:24.734Z,6.15
2023-08-17T23:44:51.770Z,6.13
2023-08-17T23:47:18.760Z,9.38
2023-08-17T23:49:46.006Z,6.43
2023-08-17T23:52:13.075Z,6.30
2023-08-17T23:54:40.212Z,6.63
2023-08-17T23:57:08.284Z,5.95
2023-08-17T23:59:35.533Z,6.03
